createdAt,value
2022-11-27T00:00:45.317Z,13.82
2022-11-27T00:03:12.141Z,13.07
2022-11-27T00:05:38.637Z,13.38
2022-11-27T00:08:05.201Z,13.88
2022-11-27T00:10:31.550Z,15.25
2022-11-27T00:12:57.946Z,17.58
2022-11-27T00:15:24.358Z,16.13
2022-11-27T00:17:50.707Z,16.25
2022-11-27T00:20:17.198Z,16.40
2022-11-27T00:22:43.633Z,21.65
2022-11-27T00:25:09.949Z,23.92
2022-11-27T00:27:36.291Z,16.25
2022-11-27T00:30:02.799Z,16.75
2022-11-27T00:32:29.141Z,19.02
2022-11-27T00:34:55.467Z,15.07
2022-11-27T00:37:21.888Z,15.63
2022-11-27T00:39:48.339Z,14.23
2022-11-27T00:42:14.702Z,12.88
2022-11-27T00:44:41.425Z,19.67
2022-11-27T00:47:08.002Z,12.35
2022-11-27T00:49:34.404Z,16.63
2022-11-27T00:52:00.753Z,13.48
2022-11-27T00:54:27.061Z,17.88
2022-11-27T00:56:53.878Z,13.02
2022-11-27T00:59:20.266Z,14.10
2022-11-27T01:01:47.274Z,15.05
2022-11-27T01:04:15.610Z,9.10
2022-11-27T01:06:42.804Z,9.75
2022-11-27T01:09:11.824Z,16.38
2022-11-27T01:11:38.465Z,13.05
2022-11-27T01:14:08.130Z,15.15
2022-11-27T01:16:36.398Z,11.57
2022-11-27T01:19:04.756Z,12.43
2022-11-27T01:21:34.630Z,10.73
2022-11-27T01:24:02.627Z,9.23
2022-11-27T01:26:29.250Z,8.75
2022-11-27T01:28:57.768Z,11.80
2022-11-27T01:31:28.368Z,10.55
2022-11-27T01:33:57.661Z,10.63
2022-11-27T01:36:24.616Z,9.02
2022-11-27T01:38:51.216Z,9.75
2022-11-27T01:41:20.816Z,8.77
2022-11-27T01:43:52.948Z,11.95
2022-11-27T01:46:39.434Z,9.05
2022-11-27T01:49:12.015Z,15.32
2022-11-27T01:51:44.347Z,9.60
2022-11-27T01:54:11.243Z,8.27
2022-11-27T01:56:40.127Z,9.63
2022-11-27T01:59:07.405Z,11.40
2022-11-27T02:01:33.817Z,8.50
2022-11-27T02:04:02.315Z,11.02
2022-11-27T02:06:28.902Z,11.00
2022-11-27T02:08:56.241Z,12.65
2022-11-27T02:11:46.369Z,9.07
2022-11-27T02:14:33.694Z,11.57
2022-11-27T02:17:18.718Z,10.65
2022-11-27T02:20:12.846Z,8.68
2022-11-27T02:22:47.335Z,8.75
2022-11-27T02:25:28.297Z,10.88
2022-11-27T02:28:19.133Z,9.63
2022-11-27T02:30:56.635Z,9.25
2022-11-27T02:33:23.865Z,10.00
2022-11-27T02:35:57.532Z,11.05
2022-11-27T02:38:35.501Z,10.88
2022-11-27T02:41:09.749Z,10.77
2022-11-27T02:43:43.069Z,11.57
2022-11-27T02:46:12.885Z,8.50
2022-11-27T02:48:49.945Z,9.85
2022-11-27T02:51:21.646Z,10.55
2022-11-27T02:54:02.058Z,11.80
2022-11-27T02:56:31.047Z,10.15
2022-11-27T02:59:01.238Z,9.98
2022-11-27T03:01:31.237Z,9.60
2022-11-27T03:04:00.000Z,9.57
2022-11-27T03:06:34.457Z,14.88
2022-11-27T03:09:08.411Z,9.73
2022-11-27T03:14:06.398Z,8.45
2022-11-27T03:16:40.265Z,8.30
2022-11-27T03:19:17.299Z,10.35
2022-11-27T03:21:48.344Z,11.15
2022-11-27T03:24:15.265Z,9.85
2022-11-27T03:26:42.048Z,15.02
2022-11-27T03:29:14.175Z,12.85
2022-11-27T03:31:41.231Z,10.57
2022-11-27T03:34:08.425Z,8.82
2022-11-27T03:36:34.822Z,11.52
2022-11-27T03:39:01.431Z,12.35
2022-11-27T03:41:45.746Z,8.25
2022-11-27T03:44:35.163Z,11.55
2022-11-27T03:47:32.310Z,9.75
2022-11-27T03:50:23.676Z,12.98
2022-11-27T03:53:22.178Z,9.95
2022-11-27T03:55:54.652Z,7.25
2022-11-27T03:58:31.442Z,11.07
2022-11-27T04:01:00.326Z,9.65
2022-11-27T04:03:29.620Z,11.25
2022-11-27T04:05:56.902Z,8.45
2022-11-27T04:08:23.541Z,9.32
2022-11-27T04:10:49.936Z,8.00
2022-11-27T04:13:16.667Z,11.02
2022-11-27T04:15:43.112Z,8.57
2022-11-27T04:18:09.537Z,11.95
2022-11-27T04:20:35.913Z,8.85
2022-11-27T04:23:02.570Z,11.30
2022-11-27T04:25:29.064Z,10.98
2022-11-27T04:27:55.596Z,12.50
2022-11-27T04:30:22.224Z,10.93
2022-11-27T04:32:48.622Z,11.93
2022-11-27T04:35:15.133Z,14.60
2022-11-27T04:37:41.557Z,14.60
2022-11-27T04:40:08.562Z,13.40
2022-11-27T04:42:35.055Z,18.48
2022-11-27T04:45:01.460Z,15.85
2022-11-27T04:47:27.833Z,14.82
2022-11-27T04:49:54.249Z,16.17
2022-11-27T04:52:20.582Z,14.35
2022-11-27T04:54:46.923Z,16.27
2022-11-27T04:57:13.374Z,12.57
2022-11-27T04:59:39.791Z,11.65
2022-11-27T05:02:06.179Z,11.25
2022-11-27T05:04:32.578Z,12.65
2022-11-27T05:06:59.112Z,12.10
2022-11-27T05:09:25.529Z,11.55
2022-11-27T05:11:51.953Z,16.13
2022-11-27T05:14:18.480Z,11.52
2022-11-27T05:16:49.955Z,12.75
2022-11-27T05:19:18.080Z,9.98
2022-11-27T05:21:45.755Z,11.82
2022-11-27T05:24:13.506Z,12.23
2022-11-27T05:26:40.884Z,13.63
2022-11-27T05:29:08.832Z,13.45
2022-11-27T05:31:35.760Z,12.35
2022-11-27T05:34:02.848Z,11.05
2022-11-27T05:36:29.886Z,11.13
2022-11-27T05:38:56.573Z,12.70
2022-11-27T05:41:23.395Z,11.48
2022-11-27T05:43:49.877Z,13.55
2022-11-27T05:46:18.638Z,13.50
2022-11-27T05:48:44.986Z,13.77
2022-11-27T05:51:11.335Z,14.10
2022-11-27T05:53:37.778Z,17.40
2022-11-27T05:56:10.804Z,12.93
2022-11-27T05:58:38.977Z,10.25
2022-11-27T06:01:06.689Z,12.25
2022-11-27T06:03:33.421Z,11.50
2022-11-27T06:06:06.175Z,12.85
2022-11-27T06:08:32.627Z,11.43
2022-11-27T06:10:59.059Z,13.30
2022-11-27T06:13:25.396Z,12.00
2022-11-27T06:15:51.765Z,11.07
2022-11-27T06:18:18.200Z,11.93
2022-11-27T06:20:46.838Z,10.82
2022-11-27T06:23:16.611Z,11.23
2022-11-27T06:25:43.010Z,12.32
2022-11-27T06:28:09.563Z,13.50
2022-11-27T06:30:37.602Z,11.80
2022-11-27T06:33:04.125Z,10.73
2022-11-27T06:35:30.494Z,12.30
2022-11-27T06:37:56.863Z,10.23
2022-11-27T06:40:23.397Z,13.25
2022-11-27T06:42:49.780Z,13.15
2022-11-27T06:45:16.217Z,10.48
2022-11-27T06:47:42.575Z,8.80
2022-11-27T06:50:09.288Z,10.60
2022-11-27T06:52:40.119Z,14.80
2022-11-27T06:55:07.509Z,12.63
2022-11-27T06:57:33.858Z,16.58
2022-11-27T07:00:00.236Z,13.77
2022-11-27T07:02:26.813Z,23.00
2022-11-27T07:04:53.193Z,13.55
2022-11-27T07:07:19.595Z,19.90
2022-11-27T07:09:46.084Z,15.95
2022-11-27T07:12:12.470Z,17.55
2022-11-27T07:14:39.224Z,18.38
2022-11-27T07:17:05.825Z,18.27
2022-11-27T07:19:32.248Z,19.73
2022-11-27T07:21:58.594Z,14.55
2022-11-27T07:24:25.060Z,13.43
2022-11-27T07:26:51.422Z,12.48
2022-11-27T07:29:17.770Z,16.27
2022-11-27T07:31:44.199Z,20.27
2022-11-27T07:34:15.997Z,12.82
2022-11-27T07:36:46.284Z,14.20
2022-11-27T07:39:12.652Z,14.18
2022-11-27T07:41:38.994Z,15.98
2022-11-27T07:44:05.428Z,14.85
2022-11-27T07:46:31.946Z,20.60
2022-11-27T07:49:00.510Z,21.02
2022-11-27T07:51:27.679Z,20.52
2022-11-27T07:53:54.053Z,20.05
2022-11-27T07:56:21.465Z,27.60
2022-11-27T07:58:48.892Z,35.63
2022-11-27T08:01:18.337Z,25.10
2022-11-27T08:03:45.127Z,21.67
2022-11-27T08:06:23.471Z,23.40
2022-11-27T08:08:50.618Z,19.33
2022-11-27T08:11:21.831Z,17.77
2022-11-27T08:13:48.838Z,21.70
2022-11-27T08:16:15.389Z,16.80
2022-11-27T08:18:42.115Z,16.40
2022-11-27T08:21:08.490Z,16.50
2022-11-27T08:23:34.833Z,11.55
2022-11-27T08:26:05.268Z,15.98
2022-11-27T08:28:31.873Z,19.40
2022-11-27T08:30:59.762Z,12.25
2022-11-27T08:33:26.279Z,14.02
2022-11-27T08:35:53.036Z,14.93
2022-11-27T08:38:20.935Z,13.57
2022-11-27T08:41:06.838Z,13.90
2022-11-27T08:43:33.849Z,12.82
2022-11-27T08:46:04.707Z,15.65
2022-11-27T08:48:31.339Z,14.20
2022-11-27T08:50:58.772Z,14.27
2022-11-27T08:53:25.113Z,12.25
2022-11-27T08:55:51.572Z,13.85
2022-11-27T08:58:17.906Z,15.27
2022-11-27T09:00:44.357Z,14.25
2022-11-27T09:03:11.597Z,12.45
2022-11-27T09:05:42.327Z,14.10
2022-11-27T09:08:08.689Z,11.70
2022-11-27T09:10:37.042Z,13.05
2022-11-27T09:13:03.422Z,12.90
2022-11-27T09:15:29.786Z,12.93
2022-11-27T09:17:56.237Z,12.05
2022-11-27T09:20:22.669Z,10.75
2022-11-27T09:22:49.022Z,11.20
2022-11-27T09:25:15.437Z,11.70
2022-11-27T09:27:41.851Z,11.50
2022-11-27T09:30:08.804Z,14.07
2022-11-27T09:32:35.461Z,13.45
2022-11-27T09:35:01.972Z,10.90
2022-11-27T09:37:28.491Z,14.27
2022-11-27T09:39:55.690Z,20.20
2022-11-27T09:42:47.147Z,21.50
2022-11-27T09:45:17.334Z,24.88
2022-11-27T09:47:54.103Z,18.30
2022-11-27T09:50:30.894Z,12.15
2022-11-27T09:53:06.729Z,10.48
2022-11-27T09:55:43.542Z,10.57
2022-11-27T09:58:37.704Z,11.20
2022-11-27T10:01:15.921Z,10.90
2022-11-27T10:03:43.737Z,10.80
2022-11-27T10:06:33.411Z,11.43
2022-11-27T10:09:21.352Z,12.63
2022-11-27T10:12:11.850Z,12.85
2022-11-27T10:14:47.194Z,9.18
2022-11-27T10:17:26.839Z,13.15
2022-11-27T10:20:10.579Z,11.20
2022-11-27T10:23:10.167Z,10.75
2022-11-27T10:25:50.544Z,18.20
2022-11-27T10:28:36.413Z,16.33
2022-11-27T10:31:09.548Z,16.50
2022-11-27T10:33:50.335Z,13.38
2022-11-27T10:36:39.084Z,13.05
2022-11-27T10:39:15.752Z,14.18
2022-11-27T10:41:52.002Z,15.02
2022-11-27T10:44:28.057Z,11.32
2022-11-27T10:47:01.398Z,10.00
2022-11-27T10:49:27.778Z,10.52
2022-11-27T10:51:54.139Z,12.70
2022-11-27T10:54:28.985Z,10.55
2022-11-27T10:57:14.308Z,13.75
2022-11-27T10:59:55.020Z,11.20
2022-11-27T11:02:31.441Z,11.55
2022-11-27T11:05:24.057Z,10.60
2022-11-27T11:08:14.880Z,10.57
2022-11-27T11:10:49.544Z,10.85
2022-11-27T11:13:19.348Z,9.25
2022-11-27T11:15:57.874Z,8.27
2022-11-27T11:18:41.346Z,9.00
2022-11-27T11:21:17.371Z,10.93
2022-11-27T11:23:46.856Z,11.30
2022-11-27T11:26:27.980Z,9.35
2022-11-27T11:28:58.116Z,8.85
2022-11-27T11:31:38.012Z,15.82
2022-11-27T11:34:15.180Z,16.10
2022-11-27T11:36:52.422Z,15.85
2022-11-27T11:39:27.892Z,19.55
2022-11-27T11:41:54.220Z,19.25
2022-11-27T11:44:25.753Z,22.00
2022-11-27T11:46:54.847Z,11.38
2022-11-27T11:49:29.143Z,13.23
2022-11-27T11:52:33.302Z,17.77
2022-11-27T11:58:32.294Z,9.23
2022-11-27T12:01:34.096Z,14.77
2022-11-27T12:04:06.433Z,9.88
2022-11-27T12:06:44.558Z,9.02
2022-11-27T12:09:29.396Z,10.88
2022-11-27T12:12:10.822Z,8.55
2022-11-27T12:14:44.907Z,10.90
2022-11-27T12:17:35.615Z,9.07
2022-11-27T12:20:21.797Z,8.63
2022-11-27T12:23:16.011Z,8.77
2022-11-27T12:25:50.946Z,9.13
2022-11-27T12:28:58.767Z,10.98
2022-11-27T12:31:41.655Z,8.13
2022-11-27T12:34:32.667Z,7.20
2022-11-27T12:37:13.938Z,7.13
2022-11-27T12:40:06.914Z,11.82
2022-11-27T12:42:48.401Z,10.30
2022-11-27T12:45:19.673Z,8.18
2022-11-27T12:47:56.359Z,7.30
2022-11-27T12:50:34.724Z,8.93
2022-11-27T12:53:11.532Z,10.35
2022-11-27T12:55:43.212Z,11.57
2022-11-27T12:58:27.640Z,8.80
2022-11-27T13:01:03.007Z,8.48
2022-11-27T13:03:37.721Z,9.68
2022-11-27T13:06:11.378Z,9.90
2022-11-27T13:08:53.382Z,9.27
2022-11-27T13:11:26.123Z,9.93
2022-11-27T13:14:03.236Z,10.38
2022-11-27T13:16:45.187Z,12.40
2022-11-27T13:19:33.268Z,9.50
2022-11-27T13:22:03.390Z,11.15
2022-11-27T13:24:30.345Z,12.48
2022-11-27T13:27:02.310Z,12.45
2022-11-27T13:29:47.918Z,10.32
2022-11-27T13:32:22.608Z,12.15
2022-11-27T13:34:52.152Z,10.35
2022-11-27T13:37:31.448Z,12.60
2022-11-27T13:40:18.366Z,13.45
2022-11-27T13:42:49.014Z,9.48
2022-11-27T13:45:28.196Z,11.15
2022-11-27T13:47:56.876Z,9.52
2022-11-27T13:50:29.689Z,11.43
2022-11-27T13:53:03.246Z,11.88
2022-11-27T13:55:32.538Z,9.13
2022-11-27T13:58:01.242Z,12.15
2022-11-27T14:00:37.958Z,11.85
2022-11-27T14:03:06.294Z,13.73
2022-11-27T14:05:39.845Z,10.98
2022-11-27T14:08:18.463Z,10.90
2022-11-27T14:10:56.313Z,13.75
2022-11-27T14:13:34.992Z,10.73
2022-11-27T14:16:04.783Z,10.20
2022-11-27T14:18:31.570Z,11.70
2022-11-27T14:21:01.798Z,12.63
2022-11-27T14:23:37.909Z,12.90
2022-11-27T14:26:19.019Z,15.57
2022-11-27T14:28:49.790Z,10.35
2022-11-27T14:31:35.681Z,13.07
2022-11-27T14:34:20.835Z,12.43
2022-11-27T14:36:54.342Z,15.85
2022-11-27T14:39:36.774Z,11.23
2022-11-27T14:42:19.013Z,13.52
2022-11-27T14:44:45.452Z,11.18
2022-11-27T14:47:22.598Z,13.07
2022-11-27T14:49:56.032Z,11.93
2022-11-27T14:52:23.577Z,12.95
2022-11-27T14:54:51.006Z,12.10
2022-11-27T14:57:24.274Z,11.95
2022-11-27T15:00:11.248Z,10.13
2022-11-27T15:02:37.775Z,16.27
2022-11-27T15:05:06.056Z,18.33
2022-11-27T15:07:44.051Z,18.10
2022-11-27T15:10:41.218Z,15.73
2022-11-27T15:13:21.297Z,16.25
2022-11-27T15:15:56.560Z,11.50
2022-11-27T15:18:24.185Z,10.88
2022-11-27T15:20:51.802Z,13.70
2022-11-27T15:23:24.364Z,11.88
2022-11-27T15:25:59.466Z,11.95
2022-11-27T15:28:35.650Z,13.38
2022-11-27T15:31:21.464Z,13.68
2022-11-27T15:33:59.777Z,10.85
2022-11-27T15:36:26.748Z,11.68
2022-11-27T15:39:05.055Z,11.45
2022-11-27T15:41:31.541Z,9.68
2022-11-27T15:43:57.894Z,10.95
2022-11-27T15:46:30.160Z,12.80
2022-11-27T15:48:57.182Z,9.50
2022-11-27T15:51:23.642Z,8.35
2022-11-27T15:53:50.096Z,12.20
2022-11-27T15:56:16.822Z,11.23
2022-11-27T15:58:43.576Z,10.40
2022-11-27T16:01:11.112Z,8.82
2022-11-27T16:03:39.764Z,10.55
2022-11-27T16:06:08.307Z,11.80
2022-11-27T16:08:34.839Z,10.48
2022-11-27T16:11:03.134Z,11.25
2022-11-27T16:13:29.691Z,12.65
2022-11-27T16:16:04.243Z,11.85
2022-11-27T16:18:32.249Z,11.35
2022-11-27T16:21:09.819Z,14.45
2022-11-27T16:23:38.444Z,15.63
2022-11-27T16:26:05.469Z,11.68
2022-11-27T16:28:32.459Z,10.68
2022-11-27T16:31:02.204Z,12.57
2022-11-27T16:33:30.372Z,12.15
2022-11-27T16:36:03.934Z,13.52
2022-11-27T16:38:30.266Z,11.60
2022-11-27T16:41:00.992Z,13.13
2022-11-27T16:43:29.475Z,13.02
2022-11-27T16:46:10.728Z,12.30
2022-11-27T16:48:39.172Z,10.93
2022-11-27T16:51:07.709Z,12.27
2022-11-27T16:53:38.580Z,11.38
2022-11-27T16:56:06.150Z,11.57
2022-11-27T16:58:34.442Z,11.32
2022-11-27T17:01:01.056Z,9.38
2022-11-27T17:03:27.465Z,13.05
2022-11-27T17:05:53.886Z,12.00
2022-11-27T17:08:20.196Z,12.65
2022-11-27T17:10:46.589Z,17.45
2022-11-27T17:13:12.932Z,22.77
2022-11-27T17:15:40.802Z,15.35
2022-11-27T17:18:07.344Z,13.15
2022-11-27T17:20:33.813Z,16.13
2022-11-27T17:23:00.177Z,14.13
2022-11-27T17:25:26.840Z,12.98
2022-11-27T17:27:53.234Z,14.43
2022-11-27T17:30:20.051Z,15.63
2022-11-27T17:32:46.391Z,16.33
2022-11-27T17:35:13.008Z,14.77
2022-11-27T17:37:39.345Z,20.17
2022-11-27T17:40:06.531Z,17.83
2022-11-27T17:42:32.910Z,16.67
2022-11-27T17:44:59.350Z,23.58
2022-11-27T17:47:25.686Z,15.52
2022-11-27T17:49:52.015Z,17.83
2022-11-27T17:52:18.405Z,17.20
2022-11-27T17:54:44.876Z,16.00
2022-11-27T17:57:11.210Z,17.60
2022-11-27T17:59:37.655Z,16.90
2022-11-27T18:02:04.154Z,15.25
2022-11-27T18:04:30.987Z,16.35
2022-11-27T18:06:57.690Z,18.50
2022-11-27T18:09:24.179Z,17.27
2022-11-27T18:11:50.524Z,14.63
2022-11-27T18:14:16.941Z,18.48
2022-11-27T18:16:43.432Z,17.80
2022-11-27T18:19:11.613Z,15.27
2022-11-27T18:21:38.431Z,21.55
2022-11-27T18:24:23.469Z,15.13
2022-11-27T18:27:07.710Z,16.75
2022-11-27T18:29:37.582Z,18.60
2022-11-27T18:32:04.320Z,16.52
2022-11-27T18:34:30.908Z,15.63
2022-11-27T18:36:59.439Z,13.88
2022-11-27T18:39:26.505Z,20.13
2022-11-27T18:41:52.873Z,16.08
2022-11-27T18:44:19.650Z,16.20
2022-11-27T18:46:46.212Z,15.48
2022-11-27T18:49:12.929Z,16.27
2022-11-27T18:51:39.325Z,16.83
2022-11-27T18:54:05.875Z,15.77
2022-11-27T18:56:32.376Z,18.17
2022-11-27T18:59:04.008Z,15.52
2022-11-27T19:01:36.789Z,13.30
2022-11-27T19:04:06.839Z,15.88
2022-11-27T19:06:35.620Z,19.88
2022-11-27T19:09:02.043Z,14.25
2022-11-27T19:11:30.627Z,19.05
2022-11-27T19:13:57.357Z,17.33
2022-11-27T19:16:30.992Z,16.98
2022-11-27T19:18:59.279Z,21.83
2022-11-27T19:21:28.597Z,21.58
2022-11-27T19:23:56.367Z,17.83
2022-11-27T19:28:51.859Z,15.98
2022-11-27T19:33:50.338Z,16.10
2022-11-27T19:36:16.869Z,19.30
2022-11-27T19:38:43.367Z,17.33
2022-11-27T19:41:15.276Z,17.20
2022-11-27T19:43:41.766Z,18.92
2022-11-27T19:46:15.321Z,16.25
2022-11-27T19:48:41.885Z,16.42
2022-11-27T19:51:09.829Z,23.90
2022-11-27T19:53:36.955Z,14.38
2022-11-27T19:56:04.033Z,17.25
2022-11-27T19:58:30.471Z,16.70
2022-11-27T20:01:15.436Z,16.40
2022-11-27T20:03:43.084Z,15.23
2022-11-27T20:06:18.417Z,26.05
2022-11-27T20:08:45.939Z,26.50
2022-11-27T20:11:19.536Z,18.98
2022-11-27T20:13:46.255Z,19.58
2022-11-27T20:16:15.192Z,16.20
2022-11-27T20:18:42.092Z,17.92
2022-11-27T20:21:17.044Z,15.02
2022-11-27T20:23:44.842Z,18.10
2022-11-27T20:28:41.253Z,14.18
2022-11-27T20:31:13.468Z,16.13
2022-11-27T20:33:39.865Z,16.08
2022-11-27T20:36:15.340Z,17.10
2022-11-27T20:38:41.914Z,18.90
2022-11-27T20:41:10.264Z,12.18
2022-11-27T20:43:37.473Z,16.80
2022-11-27T20:46:04.917Z,14.75
2022-11-27T20:48:31.745Z,17.63
2022-11-27T20:51:06.153Z,16.00
2022-11-27T20:53:32.549Z,17.45
2022-11-27T20:56:03.735Z,15.02
2022-11-27T20:58:30.251Z,16.15
2022-11-27T21:00:59.720Z,14.18
2022-11-27T21:03:29.899Z,16.70
2022-11-27T21:05:56.310Z,15.00
2022-11-27T21:08:23.048Z,15.88
2022-11-27T21:10:50.359Z,17.42
2022-11-27T21:13:16.769Z,17.25
2022-11-27T21:15:47.421Z,15.75
2022-11-27T21:18:14.212Z,20.73
2022-11-27T21:20:41.911Z,21.08
2022-11-27T21:23:08.486Z,16.67
2022-11-27T21:25:34.940Z,18.90
2022-11-27T21:28:01.355Z,20.17
2022-11-27T21:30:28.313Z,17.20
2022-11-27T21:32:54.670Z,15.35
2022-11-27T21:35:21.023Z,14.23
2022-11-27T21:37:47.348Z,16.90
2022-11-27T21:40:13.768Z,18.50
2022-11-27T21:42:44.379Z,19.75
2022-11-27T21:45:11.308Z,19.63
2022-11-27T21:47:37.684Z,18.98
2022-11-27T21:50:05.009Z,18.50
2022-11-27T21:52:31.418Z,19.10
2022-11-27T21:54:57.888Z,19.05
2022-11-27T21:57:24.330Z,16.27
2022-11-27T21:59:51.849Z,18.27
2022-11-27T22:02:18.232Z,15.32
2022-11-27T22:04:44.929Z,16.05
2022-11-27T22:07:11.787Z,17.17
2022-11-27T22:09:38.185Z,20.45
2022-11-27T22:12:04.722Z,17.75
2022-11-27T22:14:31.049Z,20.17
2022-11-27T22:16:57.473Z,16.83
2022-11-27T22:19:23.893Z,21.23
2022-11-27T22:21:50.311Z,17.50
2022-11-27T22:24:19.732Z,22.63
2022-11-27T22:26:46.992Z,18.17
2022-11-27T22:29:13.329Z,18.90
2022-11-27T22:31:39.771Z,18.17
2022-11-27T22:34:06.182Z,20.27
2022-11-27T22:36:34.535Z,18.05
2022-11-27T22:39:04.265Z,19.42
2022-11-27T22:41:32.444Z,22.80
2022-11-27T22:44:00.386Z,17.33
2022-11-27T22:46:32.529Z,24.63
2022-11-27T22:49:01.074Z,19.60
2022-11-27T22:51:29.998Z,20.27
2022-11-27T22:53:56.349Z,16.75
2022-11-27T22:56:22.963Z,16.10
2022-11-27T22:58:52.859Z,18.20
2022-11-27T23:01:28.675Z,19.98
2022-11-27T23:03:55.186Z,17.30
2022-11-27T23:06:23.765Z,19.25
2022-11-27T23:08:51.018Z,19.52
2022-11-27T23:11:26.164Z,20.75
2022-11-27T23:13:54.679Z,17.58
2022-11-27T23:16:21.572Z,18.30
2022-11-27T23:18:48.285Z,16.77
2022-11-27T23:21:17.805Z,18.67
2022-11-27T23:23:44.757Z,18.80
2022-11-27T23:26:20.432Z,17.88
2022-11-27T23:28:48.900Z,20.70
2022-11-27T23:31:30.033Z,21.38
2022-11-27T23:33:57.921Z,18.83
2022-11-27T23:36:24.707Z,19.33
2022-11-27T23:38:51.108Z,17.42
2022-11-27T23:41:20.158Z,24.95
2022-11-27T23:43:46.961Z,17.92
2022-11-27T23:46:15.050Z,20.70
2022-11-27T23:48:41.841Z,18.33
2022-11-27T23:51:10.344Z,16.05
2022-11-27T23:53:37.315Z,22.77
2022-11-27T23:56:07.475Z,16.83
2022-11-27T23:58:33.863Z,22.05
